Time;durP1;ratioP1;P1;durP2;ratioP2;P2;SDS_P1;SDS_P2;PMS_P1;PMS_P2;Temp;Humidity;BMP_temperature;BMP_pressure;BME280_temperature;BME280_humidity;BME280_pressure;Samples;Min_cycle;Max_cycle;Signal;HPM_P1;HPM_P2
2022/12/09 00:01:22;;;;;;;5.03;4.35;;;13.20;56.80;;;;;;5053469;28;20600;-69
2022/12/09 00:03:47;;;;;;;4.30;4.00;;;13.20;56.80;;;;;;5052484;28;20701;-69
2022/12/09 00:06:18;;;;;;;4.25;3.90;;;13.20;56.80;;;;;;5053410;28;20194;-69
2022/12/09 00:08:43;;;;;;;4.60;4.20;;;13.30;56.90;;;;;;5053007;28;20179;-69
2022/12/09 00:11:09;;;;;;;4.15;3.70;;;13.30;56.80;;;;;;5052373;28;20705;-69
2022/12/09 00:13:35;;;;;;;5.28;4.63;;;13.40;56.80;;;;;;5052757;28;20241;-68
2022/12/09 00:16:07;;;;;;;4.05;3.75;;;13.40;56.70;;;;;;5053296;28;20213;-68
2022/12/09 00:18:34;;;;;;;4.20;3.90;;;13.40;56.60;;;;;;5052467;28;20179;-68
2022/12/09 00:21:13;;;;;;;4.00;3.70;;;13.50;56.60;;;;;;5053123;28;20638;-69
2022/12/09 00:23:38;;;;;;;4.20;3.90;;;13.40;56.60;;;;;;5052774;28;20253;-69
2022/12/09 00:26:04;;;;;;;4.30;3.90;;;13.40;56.60;;;;;;5052227;28;20626;-70
2022/12/09 00:28:29;;;;;;;5.00;4.60;;;13.40;56.60;;;;;;5053162;28;20171;-70
2022/12/09 00:30:58;;;;;;;5.40;4.90;;;13.30;56.60;;;;;;5052734;28;20258;-68
2022/12/09 00:33:24;;;;;;;4.50;4.10;;;13.30;56.60;;;;;;5051584;28;20211;-69
2022/12/09 00:35:49;;;;;;;4.75;4.35;;;13.30;56.70;;;;;;5052555;28;20171;-68
2022/12/09 00:38:15;;;;;;;4.38;4.07;;;13.30;56.70;;;;;;5052723;28;20182;-69
2022/12/09 00:40:40;;;;;;;5.00;4.00;;;13.40;56.80;;;;;;5051781;28;20217;-69
2022/12/09 00:43:06;;;;;;;4.30;3.90;;;13.40;56.70;;;;;;5053027;28;20163;-69
2022/12/09 00:45:31;;;;;;;4.38;3.85;;;13.40;56.60;;;;;;5052356;28;20333;-70
2022/12/09 00:47:57;;;;;;;3.80;3.50;;;13.50;56.60;;;;;;5052551;28;20215;-70
2022/12/09 00:50:22;;;;;;;4.57;4.18;;;13.50;56.60;;;;;;5052835;28;20266;-70
2022/12/09 00:52:48;;;;;;;4.18;3.78;;;13.50;56.60;;;;;;5051663;28;20258;-70
2022/12/09 00:55:13;;;;;;;4.43;4.07;;;13.40;56.50;;;;;;5052699;28;20266;-70
2022/12/09 00:57:39;;;;;;;4.13;3.83;;;13.40;56.60;;;;;;5052522;28;20186;-69
2022/12/09 01:00:05;;;;;;;4.18;3.85;;;13.40;56.60;;;;;;5052113;28;20175;-69
2022/12/09 01:02:31;;;;;;;4.03;3.72;;;13.40;56.60;;;;;;5052546;28;20174;-69
2022/12/09 01:04:56;;;;;;;4.20;3.90;;;13.30;56.60;;;;;;5052686;28;20696;-69
2022/12/09 01:07:22;;;;;;;4.43;4.03;;;13.30;56.60;;;;;;5051842;28;20638;-69
2022/12/09 01:09:47;;;;;;;4.80;4.40;;;13.40;56.70;;;;;;5052208;28;20654;-69
2022/12/09 01:12:13;;;;;;;4.57;4.18;;;13.40;56.60;;;;;;5052449;28;20219;-69
2022/12/09 01:14:38;;;;;;;4.63;4.22;;;13.50;56.60;;;;;;5051293;28;20230;-69
2022/12/09 01:17:04;;;;;;;4.80;4.40;;;13.50;56.50;;;;;;5052567;28;20171;-68
2022/12/09 01:19:29;;;;;;;4.80;4.40;;;13.50;56.50;;;;;;5052579;28;20175;-69
2022/12/09 01:21:55;;;;;;;4.55;4.25;;;13.50;56.50;;;;;;5051499;28;20171;-68
2022/12/09 01:24:21;;;;;;;5.60;5.13;;;13.50;56.60;;;;;;5052316;28;20266;-70
2022/12/09 01:26:47;;;;;;;4.60;4.20;;;13.40;56.60;;;;;;5052312;28;20205;-70
2022/12/09 01:29:12;;;;;;;5.05;4.57;;;13.40;56.60;;;;;;5051642;28;20647;-69
2022/12/09 01:31:38;;;;;;;5.70;5.20;;;13.30;56.50;;;;;;5052031;28;20186;-70
2022/12/09 01:34:03;;;;;;;4.88;4.47;;;13.30;56.60;;;;;;5052554;28;20227;-68
2022/12/09 01:36:29;;;;;;;5.30;4.90;;;13.30;56.60;;;;;;5051635;28;20175;-69
2022/12/09 01:38:56;;;;;;;5.47;5.03;;;13.30;56.60;;;;;;5052106;28;20586;-69
2022/12/09 01:41:21;;;;;;;5.28;4.78;;;13.40;56.70;;;;;;5052463;28;20179;-69
2022/12/09 01:44:18;;;;;;;5.18;4.78;;;13.40;56.60;;;;;;5053389;28;20183;-69
2022/12/09 01:46:44;;;;;;;5.75;5.22;;;13.50;56.60;;;;;;5055523;28;20174;-70
2022/12/09 01:49:13;;;;;;;5.78;5.28;;;13.50;56.60;;;;;;5055159;28;20179;-70
2022/12/09 01:51:38;;;;;;;5.72;5.22;;;13.50;56.50;;;;;;5054502;28;20179;-70
2022/12/09 01:54:04;;;;;;;5.65;5.15;;;13.40;56.50;;;;;;5055835;28;20549;-69
2022/12/09 01:56:32;;;;;;;6.20;5.60;;;13.40;56.60;;;;;;5055129;28;20722;-69
2022/12/09 01:59:04;;;;;;;5.68;5.22;;;13.40;56.60;;;;;;5054681;28;20242;-68
2022/12/09 02:01:29;;;;;;;6.97;6.38;;;13.30;56.50;;;;;;5054584;28;20171;-69
2022/12/09 02:03:55;;;;;;;5.55;5.13;;;13.30;56.60;;;;;;5053291;28;20232;-69
2022/12/09 02:06:20;;;;;;;5.85;5.18;;;13.20;56.60;;;;;;5055694;28;20658;-69
2022/12/09 02:08:46;;;;;;;5.40;4.90;;;13.30;56.70;;;;;;5055409;28;20187;-69
2022/12/09 02:11:14;;;;;;;5.05;4.65;;;13.40;56.80;;;;;;5053413;28;20215;-69
2022/12/09 02:14:04;;;;;;;5.65;5.15;;;13.40;56.60;;;;;;5055236;28;20199;-68
2022/12/09 02:16:34;;;;;;;4.88;4.47;;;13.40;56.60;;;;;;5055395;28;20178;-68
2022/12/09 02:19:10;;;;;;;5.50;5.00;;;13.40;56.60;;;;;;5053705;28;20525;-69
2022/12/09 02:21:50;;;;;;;5.88;5.38;;;13.40;56.60;;;;;;5053895;28;20174;-69
2022/12/09 02:24:34;;;;;;;5.95;5.40;;;13.40;56.60;;;;;;5053353;28;20217;-70
2022/12/09 02:27:15;;;;;;;5.90;5.32;;;13.30;56.60;;;;;;5054202;28;20179;-69
2022/12/09 02:30:15;;;;;;;6.50;5.90;;;13.30;56.60;;;;;;5053821;28;20543;-69
2022/12/09 02:33:09;;;;;;;6.35;5.75;;;13.30;56.70;;;;;;5053906;28;20171;-69
2022/12/09 02:35:43;;;;;;;5.43;4.93;;;13.30;56.70;;;;;;5054902;28;20209;-69
2022/12/09 02:38:16;;;;;;;5.20;4.80;;;13.30;56.70;;;;;;5053262;28;20266;-69
2022/12/09 02:40:43;;;;;;;5.88;5.43;;;13.30;56.60;;;;;;5053428;28;20333;-69
2022/12/09 02:43:09;;;;;;;5.55;5.13;;;13.30;56.60;;;;;;5053709;28;20178;-69
2022/12/09 02:45:35;;;;;;;5.60;5.10;;;13.30;56.50;;;;;;5052676;28;20274;-69
2022/12/09 02:48:03;;;;;;;5.50;4.93;;;13.30;56.60;;;;;;5053701;28;20184;-70
2022/12/09 02:50:32;;;;;;;5.88;5.38;;;13.30;56.50;;;;;;5053803;28;20228;-70
2022/12/09 02:52:58;;;;;;;6.10;5.50;;;13.30;56.50;;;;;;5052705;28;20618;-68
2022/12/09 02:55:24;;;;;;;6.45;5.85;;;13.30;56.50;;;;;;5052949;28;20175;-69
2022/12/09 02:57:51;;;;;;;6.88;6.18;;;13.20;56.50;;;;;;5053174;28;20664;-69
2022/12/09 03:00:17;;;;;;;6.18;5.68;;;13.20;56.60;;;;;;5052894;28;20190;-69
2022/12/09 03:02:44;;;;;;;6.57;5.82;;;13.20;57.30;;;;;;5054401;28;20171;-68
2022/12/09 03:05:13;;;;;;;6.18;5.57;;;13.20;56.60;;;;;;5053207;28;20589;-69
2022/12/09 03:08:05;;;;;;;5.45;4.97;;;13.30;56.60;;;;;;5053335;28;20315;-69
2022/12/09 03:10:46;;;;;;;6.35;5.85;;;13.30;56.60;;;;;;5053990;28;20219;-69
2022/12/09 03:13:30;;;;;;;6.00;5.40;;;13.40;56.60;;;;;;5054154;28;20621;-69
2022/12/09 03:16:06;;;;;;;6.45;5.85;;;13.30;56.50;;;;;;5053195;28;20186;-68
2022/12/09 03:18:32;;;;;;;6.75;6.15;;;13.30;56.40;;;;;;5052754;28;20198;-68
2022/12/09 03:20:58;;;;;;;6.60;6.00;;;13.30;56.40;;;;;;5052356;28;20203;-68
2022/12/09 03:23:24;;;;;;;7.03;6.43;;;13.30;56.40;;;;;;5053106;28;20221;-69
2022/12/09 03:25:51;;;;;;;6.85;6.25;;;13.30;56.50;;;;;;5052706;28;20229;-69
2022/12/09 03:28:21;;;;;;;7.18;6.57;;;13.20;56.50;;;;;;5052266;28;20236;-69
2022/12/09 03:30:47;;;;;;;6.97;6.22;;;13.20;56.50;;;;;;5052515;28;20771;-68
2022/12/09 03:33:14;;;;;;;6.07;5.50;;;13.20;56.50;;;;;;5052591;28;20319;-69
2022/12/09 03:35:49;;;;;;;6.47;5.88;;;13.30;56.60;;;;;;5051625;28;20183;-69
2022/12/09 03:38:16;;;;;;;6.50;5.93;;;13.30;56.60;;;;;;5052990;28;20186;-69
2022/12/09 03:40:41;;;;;;;6.32;5.72;;;13.30;56.50;;;;;;5051863;28;20264;-69
2022/12/09 03:43:13;;;;;;;6.10;5.50;;;13.30;56.50;;;;;;5051834;28;20223;-68
2022/12/09 03:45:39;;;;;;;7.05;6.35;;;13.30;56.40;;;;;;5052368;28;20716;-69
2022/12/09 03:48:04;;;;;;;6.80;6.20;;;13.30;56.30;;;;;;5052449;28;20229;-70
2022/12/09 03:50:34;;;;;;;6.65;6.05;;;13.30;56.30;;;;;;5051626;28;20206;-70
2022/12/09 03:53:11;;;;;;;6.65;5.95;;;13.30;56.40;;;;;;5052400;28;20186;-69
2022/12/09 03:55:40;;;;;;;7.15;6.55;;;13.20;56.40;;;;;;5051497;28;20221;-69
2022/12/09 03:58:05;;;;;;;6.82;6.22;;;13.20;56.40;;;;;;5053526;28;20515;-69
2022/12/09 04:00:32;;;;;;;6.55;5.95;;;13.20;56.50;;;;;;5051879;28;20225;-69
2022/12/09 04:02:57;;;;;;;6.47;5.88;;;13.20;56.50;;;;;;5051647;28;20175;-69
2022/12/09 04:05:23;;;;;;;5.90;5.40;;;13.30;56.50;;;;;;5053595;28;20224;-69
2022/12/09 04:07:48;;;;;;;5.85;5.35;;;13.30;56.40;;;;;;5052230;28;20171;-69
2022/12/09 04:10:14;;;;;;;6.32;5.72;;;13.30;56.40;;;;;;5052505;28;20225;-69
2022/12/09 04:12:39;;;;;;;6.50;5.93;;;13.40;56.50;;;;;;5052951;28;20171;-68
2022/12/09 04:15:05;;;;;;;6.72;6.13;;;13.30;56.30;;;;;;5053044;28;20261;-68
2022/12/09 04:17:31;;;;;;;6.00;5.50;;;13.30;56.30;;;;;;5052336;28;20258;-68
2022/12/09 04:19:56;;;;;;;6.53;5.97;;;13.30;56.40;;;;;;5053256;28;20267;-68
2022/12/09 04:22:22;;;;;;;7.43;5.90;;;13.30;56.30;;;;;;5053219;28;20198;-68
2022/12/09 04:24:47;;;;;;;7.40;6.30;;;13.20;56.40;;;;;;5052138;28;20206;-69
2022/12/09 04:27:13;;;;;;;6.03;5.45;;;13.20;56.40;;;;;;5052975;28;20171;-69
2022/12/09 04:29:39;;;;;;;6.18;5.57;;;13.20;56.40;;;;;;5052775;28;20171;-69
2022/12/09 04:32:04;;;;;;;6.60;5.53;;;13.20;56.40;;;;;;5052403;28;20178;-68
2022/12/09 04:34:31;;;;;;;5.85;5.35;;;13.30;56.40;;;;;;5053027;28;20272;-69
2022/12/09 04:36:57;;;;;;;5.50;5.00;;;13.30;56.40;;;;;;5053162;28;20174;-68
2022/12/09 04:39:22;;;;;;;6.22;5.63;;;13.30;56.40;;;;;;5052209;28;20175;-69
2022/12/09 04:41:48;;;;;;;5.82;5.32;;;13.30;56.30;;;;;;5052636;28;20178;-70
2022/12/09 04:44:13;;;;;;;5.85;5.35;;;13.40;56.40;;;;;;5052738;28;20653;-69
2022/12/09 04:46:39;;;;;;;6.05;5.47;;;13.30;56.20;;;;;;5051651;28;20174;-69
2022/12/09 04:49:04;;;;;;;6.60;6.00;;;13.30;56.20;;;;;;5052770;28;20181;-70
2022/12/09 04:51:30;;;;;;;6.22;5.63;;;13.30;56.20;;;;;;5052607;28;20171;-70
2022/12/09 04:53:56;;;;;;;6.50;5.50;;;13.20;56.20;;;;;;5051983;28;20211;-68
2022/12/09 04:56:21;;;;;;;5.53;5.03;;;13.20;56.20;;;;;;5052824;28;20202;-69
2022/12/09 04:58:47;;;;;;;5.43;4.93;;;13.20;56.30;;;;;;5051672;28;20665;-69
2022/12/09 05:01:15;;;;;;;5.18;4.68;;;13.20;56.30;;;;;;5052665;28;20194;-69
2022/12/09 05:03:40;;;;;;;5.68;5.18;;;13.30;56.40;;;;;;5052470;28;20551;-69
2022/12/09 05:06:08;;;;;;;4.90;4.45;;;13.30;56.30;;;;;;5052009;28;20748;-69
2022/12/09 05:08:33;;;;;;;5.53;5.03;;;13.40;56.30;;;;;;5052355;28;20185;-69
2022/12/09 05:10:59;;;;;;;4.95;4.47;;;13.30;56.20;;;;;;5052534;28;20298;-68
2022/12/09 05:13:28;;;;;;;5.35;4.88;;;13.30;56.20;;;;;;5051853;28;20231;-68
2022/12/09 05:16:00;;;;;;;5.30;4.88;;;13.30;56.20;;;;;;5052407;28;20181;-68
2022/12/09 05:18:26;;;;;;;5.28;4.78;;;13.30;56.20;;;;;;5054112;28;20179;-68
2022/12/09 05:20:52;;;;;;;6.35;5.75;;;13.30;56.20;;;;;;5055382;28;20625;-68
2022/12/09 05:23:17;;;;;;;5.70;5.20;;;13.20;56.20;;;;;;5056366;28;20175;-68
2022/12/09 05:25:43;;;;;;;5.40;4.80;;;13.20;56.20;;;;;;5056139;28;20228;-68
2022/12/09 05:28:11;;;;;;;5.53;5.03;;;13.20;56.20;;;;;;5055672;28;20167;-68
2022/12/09 05:30:37;;;;;;;5.00;4.60;;;13.30;56.30;;;;;;5056102;28;20258;-68
2022/12/09 05:33:03;;;;;;;4.80;4.40;;;13.30;56.30;;;;;;5056250;28;20175;-68
2022/12/09 05:35:28;;;;;;;4.90;4.50;;;13.30;56.20;;;;;;5055426;28;20676;-68
2022/12/09 05:37:54;;;;;;;4.97;4.57;;;13.30;56.20;;;;;;5055754;28;20175;-69
2022/12/09 05:40:20;;;;;;;5.00;4.57;;;13.40;56.20;;;;;;5056161;28;20183;-68
2022/12/09 05:42:45;;;;;;;4.75;4.35;;;13.40;56.30;;;;;;5054997;28;20182;-68
2022/12/09 05:45:11;;;;;;;4.95;4.55;;;13.30;56.10;;;;;;5055886;28;20171;-68
2022/12/09 05:47:36;;;;;;;5.38;4.88;;;13.30;56.10;;;;;;5055688;28;20261;-68
2022/12/09 05:50:03;;;;;;;5.50;5.00;;;13.30;56.10;;;;;;5055120;28;20262;-68
2022/12/09 05:52:29;;;;;;;6.18;4.97;;;13.30;56.20;;;;;;5055759;28;20262;-68
2022/12/09 05:54:54;;;;;;;5.40;4.90;;;13.20;56.20;;;;;;5055377;28;20653;-67
2022/12/09 05:57:20;;;;;;;4.70;4.30;;;13.20;56.20;;;;;;5054989;28;20700;-67
2022/12/09 05:59:46;;;;;;;5.25;4.75;;;13.20;56.20;;;;;;5055397;28;20234;-67
2022/12/09 06:02:11;;;;;;;4.53;4.13;;;13.30;56.30;;;;;;5055288;28;20203;-67
2022/12/09 06:04:37;;;;;;;4.55;4.15;;;13.40;56.30;;;;;;5055254;28;20687;-67
2022/12/09 06:07:03;;;;;;;5.03;4.63;;;13.40;56.20;;;;;;5055583;28;20213;-67
2022/12/09 06:09:28;;;;;;;5.25;4.75;;;13.40;56.20;;;;;;5054773;28;20174;-68
2022/12/09 06:11:54;;;;;;;5.18;4.78;;;13.40;56.20;;;;;;5054993;28;20237;-67
2022/12/09 06:14:19;;;;;;;5.70;5.20;;;13.30;56.10;;;;;;5055510;28;20218;-67
2022/12/09 06:16:45;;;;;;;5.60;5.10;;;13.30;56.10;;;;;;5053890;28;20183;-67
2022/12/09 06:19:13;;;;;;;5.60;5.10;;;13.30;56.10;;;;;;5055545;28;20175;-67
2022/12/09 06:21:39;;;;;;;6.28;5.20;;;13.30;56.20;;;;;;5055151;28;20187;-67
2022/12/09 06:24:05;;;;;;;5.13;4.68;;;13.20;56.20;;;;;;5054521;28;20171;-68
2022/12/09 06:26:31;;;;;;;4.82;4.43;;;13.20;56.20;;;;;;5054777;28;20210;-68
2022/12/09 06:28:57;;;;;;;5.07;4.68;;;13.20;56.20;;;;;;5054843;28;20207;-68
2022/12/09 06:31:22;;;;;;;5.35;4.88;;;13.30;56.20;;;;;;5053702;28;20186;-68
2022/12/09 06:33:48;;;;;;;4.40;4.07;;;13.30;56.20;;;;;;5054591;28;20220;-67
2022/12/09 06:36:13;;;;;;;5.35;4.85;;;13.40;56.10;;;;;;5055190;28;20225;-67
2022/12/09 06:38:39;;;;;;;5.07;4.68;;;13.40;56.10;;;;;;5053946;28;20178;-67
2022/12/09 06:41:08;;;;;;;4.88;4.47;;;13.40;56.10;;;;;;5055079;28;20342;-67
2022/12/09 06:43:34;;;;;;;5.65;5.15;;;13.40;56.10;;;;;;5054778;28;20233;-67
2022/12/09 06:46:00;;;;;;;5.28;4.82;;;13.30;56.00;;;;;;5054299;28;20224;-67
2022/12/09 06:48:25;;;;;;;5.50;5.00;;;13.30;56.00;;;;;;5054790;28;20179;-68
2022/12/09 06:50:51;;;;;;;5.35;4.90;;;13.30;56.00;;;;;;5054670;28;20268;-68
2022/12/09 06:53:17;;;;;;;5.45;4.95;;;13.20;56.10;;;;;;5053735;28;20278;-68
2022/12/09 06:55:43;;;;;;;5.70;4.78;;;13.20;56.00;;;;;;5054279;28;20175;-68
2022/12/09 06:58:08;;;;;;;4.28;3.97;;;13.20;56.10;;;;;;5054821;28;20175;-67
2022/12/09 07:00:34;;;;;;;4.95;4.55;;;13.30;56.10;;;;;;5053723;28;20171;-67
2022/12/09 07:02:59;;;;;;;4.72;4.32;;;13.30;56.10;;;;;;5054638;28;20216;-67
2022/12/09 07:05:25;;;;;;;4.75;4.35;;;13.40;56.00;;;;;;5053783;28;20290;-68
2022/12/09 07:07:51;;;;;;;4.45;4.15;;;13.30;55.90;;;;;;5054311;28;20197;-68
2022/12/09 07:10:17;;;;;;;4.97;4.57;;;13.30;55.80;;;;;;5054029;28;20179;-68
2022/12/09 07:12:42;;;;;;;4.97;4.57;;;13.30;55.80;;;;;;5053524;28;20201;-68
2022/12/09 07:15:08;;;;;;;5.20;4.70;;;13.30;55.80;;;;;;5054286;28;20242;-68
2022/12/09 07:17:34;;;;;;;5.82;5.30;;;13.30;56.50;;;;;;5054126;28;20171;-68
2022/12/09 07:19:59;;;;;;;6.50;5.32;;;13.20;55.80;;;;;;5053332;28;20221;-68
2022/12/09 07:22:25;;;;;;;4.80;4.40;;;13.20;56.40;;;;;;5054211;28;20182;-68
2022/12/09 07:24:50;;;;;;;5.35;4.30;;;13.20;55.80;;;;;;5053660;28;20175;-69
2022/12/09 07:27:16;;;;;;;4.50;4.10;;;13.20;55.80;;;;;;5053509;28;20266;-69
2022/12/09 07:29:42;;;;;;;4.60;4.20;;;13.20;55.80;;;;;;5053904;28;20176;-69
2022/12/09 07:32:09;;;;;;;4.10;3.70;;;13.30;55.80;;;;;;5053910;28;20206;-68
2022/12/09 07:34:34;;;;;;;4.85;4.45;;;13.30;55.70;;;;;;5052724;28;20619;-68
2022/12/09 07:37:00;;;;;;;4.22;3.92;;;13.40;55.70;;;;;;5054074;28;20181;-68
2022/12/09 07:39:25;;;;;;;4.50;4.15;;;13.40;55.60;;;;;;5053783;28;20626;-69
2022/12/09 07:41:52;;;;;;;4.13;3.72;;;13.40;55.50;;;;;;5052907;28;20190;-69
2022/12/09 07:44:18;;;;;;;4.47;4.07;;;13.40;55.50;;;;;;5053568;28;20179;-68
2022/12/09 07:46:43;;;;;;;4.70;4.28;;;13.40;55.50;;;;;;5053539;28;20175;-68
2022/12/09 07:49:09;;;;;;;4.18;3.78;;;13.40;55.60;;;;;;5052945;28;20232;-69
2022/12/09 07:51:35;;;;;;;4.20;3.83;;;13.40;55.60;;;;;;5052049;28;20634;-69
2022/12/09 07:54:01;;;;;;;4.35;3.95;;;13.30;55.40;;;;;;5053494;28;20222;-69
2022/12/09 07:56:27;;;;;;;4.45;4.05;;;13.30;55.40;;;;;;5052963;28;20621;-68
2022/12/09 07:58:53;;;;;;;4.03;3.72;;;13.30;55.40;;;;;;5053333;28;20186;-68
2022/12/09 08:01:26;;;;;;;4.13;3.83;;;13.30;55.50;;;;;;5053591;28;20545;-68
2022/12/09 08:03:52;;;;;;;4.03;3.72;;;13.30;55.40;;;;;;5052396;28;20691;-68
2022/12/09 08:06:20;;;;;;;4.47;4.07;;;13.40;55.40;;;;;;5053321;28;20179;-68
2022/12/09 08:08:45;;;;;;;3.80;3.50;;;13.40;55.30;;;;;;5052418;28;20175;-68
2022/12/09 08:11:13;;;;;;;3.88;3.58;;;13.50;55.30;;;;;;5053060;28;20219;-68
2022/12/09 08:13:40;;;;;;;3.33;3.13;;;13.50;55.20;;;;;;5052908;28;20215;-68
2022/12/09 08:16:06;;;;;;;4.15;3.85;;;13.50;55.80;;;;;;5052638;28;20218;-68
2022/12/09 08:18:33;;;;;;;4.40;4.10;;;13.50;55.20;;;;;;5052927;28;20198;-68
2022/12/09 08:20:59;;;;;;;3.60;3.30;;;13.40;55.20;;;;;;5053120;28;20175;-68
2022/12/09 08:23:25;;;;;;;3.90;3.60;;;13.40;55.20;;;;;;5051134;28;20209;-68
2022/12/09 08:25:54;;;;;;;4.00;3.70;;;13.30;55.20;;;;;;5052865;28;20203;-69
2022/12/09 08:28:20;;;;;;;3.92;3.63;;;13.30;55.20;;;;;;5053044;28;20177;-69
2022/12/09 08:30:45;;;;;;;3.80;3.47;;;13.30;55.20;;;;;;5052058;28;20261;-68
2022/12/09 08:33:11;;;;;;;4.32;4.03;;;13.30;55.30;;;;;;5052838;28;20182;-68
2022/12/09 08:35:36;;;;;;;4.25;3.95;;;13.40;55.30;;;;;;5052484;28;20175;-68
2022/12/09 08:38:02;;;;;;;8.55;4.32;;;13.40;55.20;;;;;;5052317;28;20171;-68
2022/12/09 08:40:28;;;;;;;4.28;3.97;;;13.50;55.20;;;;;;5052842;28;20185;-68
2022/12/09 08:42:53;;;;;;;4.32;3.92;;;13.50;55.10;;;;;;5052464;28;20214;-68
2022/12/09 08:45:19;;;;;;;3.88;3.58;;;13.50;55.00;;;;;;5051998;28;20182;-69
2022/12/09 08:47:44;;;;;;;3.80;3.50;;;13.50;55.00;;;;;;5052516;28;20183;-69
2022/12/09 08:50:10;;;;;;;4.20;3.80;;;13.50;55.00;;;;;;5052748;28;20173;-69
2022/12/09 08:52:35;;;;;;;4.13;3.63;;;13.50;55.00;;;;;;5052050;28;20171;-69
2022/12/09 08:55:01;;;;;;;4.15;3.85;;;13.50;55.10;;;;;;5056957;28;20214;-69
2022/12/09 08:57:27;;;;;;;4.55;4.05;;;13.40;55.10;;;;;;5056966;28;20175;-68
2022/12/09 08:59:52;;;;;;;3.70;3.40;;;13.40;55.10;;;;;;5055704;28;20214;-68
2022/12/09 09:02:18;;;;;;;4.38;3.88;;;13.40;55.20;;;;;;5056796;28;20210;-68
2022/12/09 09:04:43;;;;;;;4.40;4.00;;;13.40;55.20;;;;;;5056276;28;20214;-68
2022/12/09 09:07:09;;;;;;;4.20;3.85;;;13.40;55.20;;;;;;5055862;28;20186;-68
2022/12/09 09:09:35;;;;;;;4.55;4.15;;;13.50;55.20;;;;;;5056484;28;20186;-69
2022/12/09 09:12:00;;;;;;;4.47;4.05;;;13.50;55.00;;;;;;5055690;28;20690;-68
2022/12/09 09:14:26;;;;;;;3.88;3.58;;;13.60;55.10;;;;;;5056554;28;20249;-68
2022/12/09 09:16:51;;;;;;;3.75;3.45;;;13.50;55.00;;;;;;5056267;28;20194;-68
2022/12/09 09:19:20;;;;;;;4.40;4.00;;;13.50;55.00;;;;;;5055663;28;20628;-68
2022/12/09 09:21:45;;;;;;;4.82;4.32;;;13.50;55.10;;;;;;5056433;28;20179;-68
2022/12/09 09:24:13;;;;;;;4.20;3.90;;;13.40;55.10;;;;;;5056432;28;20549;-69
2022/12/09 09:26:41;;;;;;;4.50;4.10;;;13.40;55.20;;;;;;5055412;28;20187;-69
2022/12/09 09:29:09;;;;;;;4.50;4.10;;;13.40;55.20;;;;;;5056310;28;20179;-69
2022/12/09 09:31:34;;;;;;;4.00;3.70;;;13.40;55.30;;;;;;5054947;28;20183;-69
2022/12/09 09:34:00;;;;;;;4.93;4.43;;;13.40;55.20;;;;;;5054131;28;20346;-68
2022/12/09 09:36:25;;;;;;;4.32;3.92;;;13.40;55.30;;;;;;5056349;28;20622;-68
2022/12/09 09:38:52;;;;;;;4.43;3.67;;;13.50;55.20;;;;;;5056082;28;20622;-68
2022/12/09 09:41:38;;;;;;;5.05;4.55;;;13.50;55.20;;;;;;5055376;28;20250;-69
2022/12/09 09:44:14;;;;;;;4.70;4.30;;;13.50;55.10;;;;;;5056038;28;20197;-69
2022/12/09 09:46:42;;;;;;;4.55;4.15;;;13.50;55.20;;;;;;5055904;28;20171;-69
2022/12/09 09:49:14;;;;;;;4.68;4.28;;;13.50;55.20;;;;;;5054174;28;20186;-69
2022/12/09 09:51:40;;;;;;;5.05;4.60;;;13.40;55.20;;;;;;5054617;28;20180;-69
2022/12/09 09:54:08;;;;;;;5.22;4.72;;;13.40;55.20;;;;;;5054699;28;20207;-69
2022/12/09 09:56:39;;;;;;;5.85;4.80;;;13.40;55.30;;;;;;5054092;28;20167;-68
2022/12/09 09:59:28;;;;;;;5.15;4.72;;;13.40;55.30;;;;;;5055766;28;20604;-68
2022/12/09 10:02:18;;;;;;;4.70;4.30;;;13.40;55.40;;;;;;5053292;28;20167;-68
2022/12/09 10:05:05;;;;;;;5.40;4.82;;;13.40;55.30;;;;;;5054085;28;20175;-69
2022/12/09 10:07:41;;;;;;;5.65;5.00;;;13.50;55.40;;;;;;5055427;28;20189;-69
2022/12/09 10:10:18;;;;;;;5.70;5.20;;;13.50;55.30;;;;;;5054908;28;20653;-68
2022/12/09 10:12:52;;;;;;;6.30;5.07;;;13.50;55.20;;;;;;5054333;28;20218;-68
2022/12/09 10:15:19;;;;;;;5.93;5.32;;;13.50;55.20;;;;;;5054672;28;20210;-68
2022/12/09 10:17:49;;;;;;;5.13;4.63;;;13.40;55.20;;;;;;5053783;28;21007;-67
2022/12/09 10:20:17;;;;;;;5.25;4.75;;;13.40;55.20;;;;;;5055292;28;20187;-68
2022/12/09 10:22:58;;;;;;;5.78;5.18;;;13.40;55.20;;;;;;5054486;28;20183;-68
2022/12/09 10:25:29;;;;;;;5.95;5.38;;;13.40;55.30;;;;;;5054096;28;20701;-69
2022/12/09 10:28:21;;;;;;;5.70;5.20;;;13.30;55.20;;;;;;5053764;28;20182;-69
2022/12/09 10:30:47;;;;;;;4.97;4.47;;;13.40;55.30;;;;;;5053061;28;20202;-68
2022/12/09 10:33:14;;;;;;;5.55;5.05;;;13.40;55.30;;;;;;5053842;28;20167;-67
2022/12/09 10:35:39;;;;;;;5.72;5.18;;;13.40;55.30;;;;;;5053482;28;20697;-68
2022/12/09 10:38:15;;;;;;;5.30;4.80;;;13.40;55.20;;;;;;5053178;28;20263;-67
2022/12/09 10:40:44;;;;;;;5.60;5.00;;;13.40;55.20;;;;;;5054819;28;20183;-68
2022/12/09 10:43:35;;;;;;;5.60;5.10;;;13.40;55.20;;;;;;5055129;28;20262;-68
2022/12/09 10:46:07;;;;;;;6.55;5.85;;;13.40;55.00;;;;;;5055181;28;20190;-68
2022/12/09 10:48:33;;;;;;;5.95;5.35;;;13.40;55.10;;;;;;5054581;28;20175;-68
2022/12/09 10:51:01;;;;;;;6.05;5.45;;;13.40;55.20;;;;;;5054206;28;20176;-68
2022/12/09 10:53:27;;;;;;;5.78;5.20;;;13.40;55.20;;;;;;5053646;28;20199;-68
2022/12/09 10:55:53;;;;;;;6.35;5.68;;;13.30;55.20;;;;;;5053444;28;20233;-67
2022/12/09 10:58:21;;;;;;;5.50;5.00;;;13.30;55.10;;;;;;5054036;28;20175;-67
2022/12/09 11:01:10;;;;;;;5.68;5.18;;;13.30;55.20;;;;;;5054341;28;20175;-67
2022/12/09 11:03:45;;;;;;;7.07;5.43;;;13.40;55.20;;;;;;5054276;28;20661;-68
2022/12/09 11:06:19;;;;;;;5.63;5.10;;;13.40;55.20;;;;;;5053682;28;20170;-67
2022/12/09 11:09:17;;;;;;;5.60;5.00;;;13.40;55.20;;;;;;5053247;28;20228;-68
2022/12/09 11:11:47;;;;;;;6.40;5.80;;;13.40;55.20;;;;;;5051982;28;20235;-68
2022/12/09 11:14:21;;;;;;;6.07;5.47;;;13.40;55.70;;;;;;5052998;28;20704;-67
2022/12/09 11:17:06;;;;;;;5.57;4.93;;;13.30;55.10;;;;;;5052319;28;20175;-67
2022/12/09 11:19:33;;;;;;;6.38;5.72;;;13.30;55.10;;;;;;5053186;28;20171;-68
2022/12/09 11:22:14;;;;;;;6.28;5.30;;;13.30;55.10;;;;;;5053006;28;20226;-69
2022/12/09 11:24:39;;;;;;;6.07;5.47;;;13.30;55.20;;;;;;5053911;28;20266;-69
2022/12/09 11:27:25;;;;;;;7.00;5.80;;;13.30;55.20;;;;;;5052323;28;20265;-69
2022/12/09 11:30:17;;;;;;;5.70;5.10;;;13.20;55.20;;;;;;5053525;28;20191;-69
2022/12/09 11:33:16;;;;;;;6.38;5.43;;;13.30;55.20;;;;;;5053181;28;20217;-68
2022/12/09 11:35:42;;;;;;;8.20;5.95;;;13.30;55.10;;;;;;5052694;28;20191;-68
2022/12/09 11:38:29;;;;;;;5.40;4.90;;;13.30;55.00;;;;;;5053856;28;20522;-70
2022/12/09 11:41:06;;;;;;;6.07;5.28;;;13.30;55.00;;;;;;5052965;28;20182;-70
2022/12/09 11:43:40;;;;;;;5.60;4.90;;;13.30;55.00;;;;;;5053846;28;20159;-69
2022/12/09 11:46:29;;;;;;;6.00;5.40;;;13.30;55.10;;;;;;5053810;28;20174;-69
2022/12/09 11:49:01;;;;;;;6.22;5.65;;;13.30;55.10;;;;;;5049835;28;20191;-69
2022/12/09 11:51:39;;;;;;;6.43;5.00;;;13.30;55.10;;;;;;5052583;28;20514;-69
2022/12/09 11:54:14;;;;;;;5.82;5.22;;;13.30;55.20;;;;;;5051820;28;20214;-69
2022/12/09 11:56:40;;;;;;;5.95;5.35;;;13.20;55.10;;;;;;5052199;28;20210;-69
2022/12/09 11:59:12;;;;;;;6.32;5.45;;;13.20;55.20;;;;;;5052247;28;20272;-68
2022/12/09 12:01:56;;;;;;;6.63;5.50;;;13.20;55.10;;;;;;5051393;28;20179;-69
2022/12/09 12:04:29;;;;;;;6.78;6.07;;;13.30;55.00;;;;;;5053605;28;20183;-69
2022/12/09 12:07:00;;;;;;;5.80;5.30;;;13.30;55.00;;;;;;5052142;28;20326;-68
2022/12/09 12:09:30;;;;;;;5.68;5.13;;;13.30;55.00;;;;;;5052570;28;20691;-69
2022/12/09 12:12:11;;;;;;;5.90;4.75;;;13.30;54.90;;;;;;5053072;28;20729;-68
2022/12/09 12:14:39;;;;;;;8.35;5.57;;;13.30;54.90;;;;;;5051638;28;20600;-68
2022/12/09 12:17:16;;;;;;;5.97;5.18;;;13.30;55.00;;;;;;5051538;28;20254;-68
2022/12/09 12:19:42;;;;;;;6.00;5.40;;;13.20;55.00;;;;;;5051751;28;20198;-68
2022/12/09 12:22:26;;;;;;;5.82;5.22;;;13.20;55.10;;;;;;5051346;28;20258;-69
2022/12/09 12:25:10;;;;;;;6.25;5.47;;;13.20;55.00;;;;;;5052689;28;20655;-69
2022/12/09 12:27:59;;;;;;;4.95;4.35;;;13.20;55.00;;;;;;5052152;28;20179;-69
2022/12/09 12:30:32;;;;;;;5.20;4.72;;;13.20;55.00;;;;;;5052356;28;20171;-69
2022/12/09 12:33:30;;;;;;;6.28;5.57;;;13.30;55.10;;;;;;5051845;28;20244;-68
2022/12/09 12:36:53;;;;;;;5.60;5.05;;;13.30;55.00;;;;;;5050981;28;20645;-68
2022/12/09 12:39:18;;;;;;;6.40;5.25;;;13.30;55.00;;;;;;5030743;28;20176;-69
2022/12/09 12:41:56;;;;;;;5.78;4.95;;;13.30;55.00;;;;;;5030488;28;20195;-69
2022/12/09 12:47:37;;;;;;;5.68;4.82;;;13.20;55.00;;;;;;5052831;28;20190;-70
2022/12/09 12:50:24;;;;;;;5.82;5.30;;;13.20;55.00;;;;;;5052262;28;20167;-70
2022/12/09 12:53:05;;;;;;;5.45;4.95;;;13.20;55.00;;;;;;5052662;28;20171;-69
2022/12/09 12:56:05;;;;;;;5.15;4.60;;;13.20;55.00;;;;;;5051501;28;20190;-69
2022/12/09 12:58:52;;;;;;;5.10;4.68;;;13.20;55.00;;;;;;5050907;28;20173;-69
2022/12/09 13:01:31;;;;;;;6.03;4.85;;;13.20;55.00;;;;;;5051713;28;20167;-68
2022/12/09 13:04:18;;;;;;;5.55;4.97;;;13.20;54.80;;;;;;5052582;28;20635;-69